createdAt,value
2018-10-18T00:00:26.017Z,43.40
2018-10-18T00:01:13.099Z,40.63
2018-10-18T00:02:00.239Z,41.47
2018-10-18T00:02:47.211Z,40.40
2018-10-18T00:03:34.585Z,44.60
2018-10-18T00:04:21.812Z,41.77
2018-10-18T00:05:09.501Z,41.30
2018-10-18T00:05:56.708Z,40.70
2018-10-18T00:06:44.164Z,41.43
2018-10-18T00:07:31.141Z,41.10
2018-10-18T00:08:18.286Z,39.43
2018-10-18T00:09:08.206Z,40.47
2018-10-18T00:09:55.273Z,40.87
2018-10-18T00:10:42.250Z,40.83
2018-10-18T00:11:29.256Z,40.30
2018-10-18T00:12:16.570Z,41.67
2018-10-18T00:13:03.418Z,41.63
2018-10-18T00:13:50.502Z,40.60
2018-10-18T00:14:37.719Z,41.87
2018-10-18T00:15:24.833Z,38.83
2018-10-18T00:16:11.973Z,40.60
2018-10-18T00:16:59.134Z,39.93
2018-10-18T00:17:47.069Z,40.33
2018-10-18T00:18:34.235Z,40.17
2018-10-18T00:19:21.544Z,39.40
2018-10-18T00:20:08.727Z,40.50
2018-10-18T00:20:55.926Z,39.20
2018-10-18T00:21:43.587Z,38.60
2018-10-18T00:22:31.024Z,38.53
2018-10-18T00:23:18.202Z,36.67
2018-10-18T00:24:05.729Z,38.73
2018-10-18T00:24:52.720Z,40.67
2018-10-18T00:25:39.702Z,39.40
2018-10-18T00:26:26.687Z,39.03
2018-10-18T00:27:13.826Z,37.40
2018-10-18T00:28:00.813Z,38.53
2018-10-18T00:28:47.869Z,39.20
2018-10-18T00:29:35.681Z,38.73
2018-10-18T00:30:22.674Z,39.00
2018-10-18T00:31:09.646Z,38.67
2018-10-18T00:31:57.351Z,38.13
2018-10-18T00:32:45.017Z,38.23
2018-10-18T00:33:32.281Z,38.30
2018-10-18T00:34:19.526Z,38.30
2018-10-18T00:35:06.916Z,39.43
2018-10-18T00:35:53.992Z,40.57
2018-10-18T00:36:40.889Z,40.97
2018-10-18T00:37:27.837Z,38.90
2018-10-18T00:38:14.919Z,36.63
2018-10-18T00:39:01.969Z,37.73
2018-10-18T00:39:48.995Z,39.03
2018-10-18T00:40:36.434Z,37.20
2018-10-18T00:41:23.672Z,39.23
2018-10-18T00:42:11.077Z,37.53
2018-10-18T00:42:57.998Z,37.87
2018-10-18T00:43:44.966Z,39.37
2018-10-18T00:44:31.837Z,37.03
2018-10-18T00:45:19.035Z,37.63
2018-10-18T00:46:06.622Z,38.70
2018-10-18T00:46:53.859Z,38.57
2018-10-18T00:47:41.297Z,38.43
2018-10-18T00:48:28.274Z,36.83
2018-10-18T00:49:15.373Z,38.03
2018-10-18T00:50:02.384Z,37.70
2018-10-18T00:50:49.421Z,36.60
2018-10-18T00:51:36.316Z,41.33
2018-10-18T00:52:23.500Z,40.93
2018-10-18T00:53:10.834Z,39.77
2018-10-18T00:53:57.963Z,40.27
2018-10-18T00:54:44.936Z,37.97
2018-10-18T00:55:32.130Z,40.50
2018-10-18T00:56:19.277Z,40.07
2018-10-18T00:57:06.556Z,40.03
2018-10-18T00:57:53.733Z,42.67
2018-10-18T00:58:40.921Z,40.67
2018-10-18T00:59:28.130Z,42.10
2018-10-18T01:00:15.520Z,40.03
2018-10-18T01:01:03.021Z,37.47
2018-10-18T01:01:50.297Z,39.23
2018-10-18T01:02:37.559Z,40.30
2018-10-18T01:03:25.002Z,39.50
2018-10-18T01:04:12.259Z,37.83
2018-10-18T01:04:59.285Z,38.27
2018-10-18T01:05:46.455Z,38.87
2018-10-18T01:06:33.993Z,38.70
2018-10-18T01:07:24.242Z,37.50
2018-10-18T01:08:11.696Z,40.70
2018-10-18T01:08:58.496Z,39.27
2018-10-18T01:09:45.578Z,40.30
2018-10-18T01:10:32.535Z,40.07
2018-10-18T01:11:19.989Z,40.93
2018-10-18T01:12:07.502Z,37.03
2018-10-18T01:12:54.392Z,38.97
2018-10-18T01:13:41.456Z,39.40
2018-10-18T01:14:28.413Z,37.27
2018-10-18T01:15:15.882Z,38.63
2018-10-18T01:16:03.214Z,38.30
2018-10-18T01:17:01.721Z,38.70
2018-10-18T01:17:48.964Z,37.83
2018-10-18T01:18:36.037Z,39.90
2018-10-18T01:19:23.171Z,38.77
2018-10-18T01:20:10.236Z,38.27
2018-10-18T01:20:57.385Z,39.63
2018-10-18T01:21:44.359Z,38.83
2018-10-18T01:22:31.330Z,38.40
2018-10-18T01:23:18.418Z,37.53
2018-10-18T01:24:05.677Z,38.53
2018-10-18T01:24:52.963Z,40.20
2018-10-18T01:25:39.999Z,39.33
2018-10-18T01:26:28.350Z,39.50
2018-10-18T01:27:15.572Z,38.00
2018-10-18T01:28:02.563Z,38.20
2018-10-18T01:28:49.505Z,38.50
2018-10-18T01:29:36.533Z,39.57
2018-10-18T01:30:23.632Z,39.20
2018-10-18T01:31:10.678Z,37.73
2018-10-18T01:31:58.119Z,38.07
2018-10-18T01:32:45.565Z,40.37
2018-10-18T01:33:32.582Z,38.60
2018-10-18T01:34:19.522Z,38.63
2018-10-18T01:35:06.780Z,37.77
2018-10-18T01:35:54.075Z,38.07
2018-10-18T01:36:41.332Z,40.33
2018-10-18T01:37:28.926Z,39.90
2018-10-18T01:38:16.250Z,37.83
2018-10-18T01:39:04.086Z,37.57
2018-10-18T01:39:51.604Z,37.33
2018-10-18T01:40:38.674Z,40.10
2018-10-18T01:41:25.904Z,40.57
2018-10-18T01:42:13.100Z,37.97
2018-10-18T01:43:00.114Z,38.67
2018-10-18T01:43:47.116Z,38.43
2018-10-18T01:44:34.338Z,40.10
2018-10-18T01:45:21.256Z,40.30
2018-10-18T01:46:08.400Z,38.87
2018-10-18T01:46:55.366Z,39.70
2018-10-18T01:47:42.536Z,40.40
2018-10-18T01:48:29.791Z,40.67
2018-10-18T01:49:16.983Z,39.67
2018-10-18T01:50:04.560Z,39.20
2018-10-18T01:50:51.500Z,39.30
2018-10-18T01:51:38.851Z,38.80
2018-10-18T01:52:25.890Z,39.83
2018-10-18T01:53:12.833Z,38.60
2018-10-18T01:53:59.945Z,39.10
2018-10-18T01:54:46.841Z,40.07
2018-10-18T01:55:33.837Z,39.67
2018-10-18T01:56:20.931Z,41.87
2018-10-18T01:57:08.123Z,41.20
2018-10-18T01:57:55.083Z,40.73
2018-10-18T01:58:42.249Z,40.87
2018-10-18T01:59:29.373Z,41.80
2018-10-18T02:00:16.582Z,39.87
2018-10-18T02:01:03.643Z,41.77
2018-10-18T02:01:50.698Z,42.30
2018-10-18T02:02:37.661Z,42.83
2018-10-18T02:03:24.619Z,43.67
2018-10-18T02:04:11.662Z,41.37
2018-10-18T02:04:58.746Z,43.13
2018-10-18T02:05:45.705Z,41.63
2018-10-18T02:06:33.111Z,40.90
2018-10-18T02:07:20.217Z,41.33
2018-10-18T02:08:07.674Z,41.47
2018-10-18T02:08:54.874Z,43.00
2018-10-18T02:09:42.282Z,42.33
2018-10-18T02:10:29.223Z,44.37
2018-10-18T02:11:16.236Z,42.93
2018-10-18T02:12:04.015Z,42.30
2018-10-18T02:12:51.100Z,42.87
2018-10-18T02:13:38.299Z,43.07
2018-10-18T02:14:25.192Z,43.00
2018-10-18T02:15:12.070Z,46.47
2018-10-18T02:15:58.930Z,45.30
2018-10-18T02:16:45.994Z,43.43
2018-10-18T02:17:32.923Z,45.97
2018-10-18T02:18:20.581Z,42.40
2018-10-18T02:19:07.723Z,44.73
2018-10-18T02:19:54.704Z,45.93
2018-10-18T02:20:41.891Z,44.67
2018-10-18T02:21:28.980Z,44.30
2018-10-18T02:22:16.305Z,45.00
2018-10-18T02:23:04.037Z,45.13
2018-10-18T02:23:51.211Z,43.57
2018-10-18T02:24:38.403Z,44.90
2018-10-18T02:25:25.613Z,43.77
2018-10-18T02:26:12.747Z,45.17
2018-10-18T02:26:59.799Z,44.00
2018-10-18T02:27:46.939Z,45.33
2018-10-18T02:28:34.010Z,47.03
2018-10-18T02:29:21.233Z,45.57
2018-10-18T02:30:08.779Z,44.77
2018-10-18T02:30:55.690Z,44.70
2018-10-18T02:31:42.868Z,47.23
2018-10-18T02:32:30.756Z,46.93
2018-10-18T02:33:17.829Z,43.90
2018-10-18T02:34:04.711Z,45.80
2018-10-18T02:34:51.603Z,42.93
2018-10-18T02:35:38.866Z,44.17
2018-10-18T02:36:25.901Z,44.30
2018-10-18T02:37:12.891Z,43.20
2018-10-18T02:37:59.938Z,45.83
2018-10-18T02:38:47.114Z,43.77
2018-10-18T02:39:34.017Z,43.93
2018-10-18T02:40:21.168Z,44.47
2018-10-18T02:41:08.311Z,42.97
2018-10-18T02:41:55.596Z,46.43
2018-10-18T02:42:42.807Z,46.03
2018-10-18T02:43:30.457Z,44.93
2018-10-18T02:44:18.657Z,44.67
2018-10-18T02:45:06.301Z,43.13
2018-10-18T02:45:53.370Z,43.70
2018-10-18T02:46:40.541Z,45.13
2018-10-18T02:47:27.981Z,43.53
2018-10-18T02:48:14.932Z,44.13
2018-10-18T02:49:01.993Z,46.20
2018-10-18T02:49:48.976Z,43.47
2018-10-18T02:50:35.955Z,42.57
2018-10-18T02:51:23.073Z,43.30
2018-10-18T02:52:10.852Z,42.80
2018-10-18T02:52:57.905Z,43.87
2018-10-18T02:53:44.823Z,43.40
2018-10-18T02:54:31.756Z,43.33
2018-10-18T02:55:18.756Z,44.53
2018-10-18T02:56:05.938Z,42.73
2018-10-18T02:56:53.168Z,43.53
2018-10-18T02:57:40.340Z,43.67
2018-10-18T02:58:27.501Z,42.83
2018-10-18T02:59:15.027Z,44.93
2018-10-18T03:00:02.294Z,43.93
2018-10-18T03:00:49.578Z,42.60
2018-10-18T03:01:36.884Z,42.13
2018-10-18T03:02:24.331Z,43.53
2018-10-18T03:03:11.523Z,44.13
2018-10-18T03:03:58.595Z,44.47
2018-10-18T03:05:05.641Z,42.47
2018-10-18T03:05:53.072Z,43.00
2018-10-18T03:06:40.233Z,43.93
2018-10-18T03:07:27.231Z,43.30
2018-10-18T03:08:14.242Z,43.47
2018-10-18T03:09:01.321Z,43.10
2018-10-18T03:09:48.292Z,42.73
2018-10-18T03:10:35.292Z,41.27
2018-10-18T03:11:22.329Z,41.10
2018-10-18T03:12:09.350Z,41.83
2018-10-18T03:12:56.399Z,41.63
2018-10-18T03:13:43.337Z,41.77
2018-10-18T03:14:30.524Z,43.17
2018-10-18T03:15:17.781Z,42.13
2018-10-18T03:16:05.126Z,42.03
2018-10-18T03:16:52.300Z,41.33
2018-10-18T03:17:39.329Z,40.60
2018-10-18T03:18:26.289Z,42.63
2018-10-18T03:19:13.270Z,42.40
2018-10-18T03:20:00.519Z,42.40
2018-10-18T03:20:47.670Z,41.10
2018-10-18T03:21:34.681Z,41.20
2018-10-18T03:22:22.059Z,43.10
2018-10-18T03:23:09.244Z,41.63
2018-10-18T03:23:56.373Z,41.87
2018-10-18T03:24:43.420Z,42.43
2018-10-18T03:25:30.596Z,45.33
2018-10-18T03:26:17.769Z,42.63
2018-10-18T03:27:06.019Z,41.73
2018-10-18T03:27:53.343Z,42.27
2018-10-18T03:28:40.589Z,40.20
2018-10-18T03:29:27.880Z,40.07
2018-10-18T03:30:15.388Z,41.50
2018-10-18T03:31:02.263Z,39.73
2018-10-18T03:31:49.342Z,39.40
2018-10-18T03:32:36.558Z,41.73
2018-10-18T03:33:24.149Z,39.77
2018-10-18T03:34:12.278Z,40.57
2018-10-18T03:35:00.272Z,40.53
2018-10-18T03:35:48.707Z,40.00
2018-10-18T03:36:36.269Z,39.90
2018-10-18T03:37:26.126Z,41.67
2018-10-18T03:38:13.936Z,39.33
2018-10-18T03:39:07.534Z,41.30
2018-10-18T03:39:59.021Z,39.33
2018-10-18T03:40:46.631Z,39.47
2018-10-18T03:41:34.395Z,38.23
2018-10-18T03:42:22.852Z,40.70
2018-10-18T03:43:10.726Z,38.03
2018-10-18T03:44:04.532Z,39.67
2018-10-18T03:44:52.922Z,40.50
2018-10-18T03:45:40.527Z,38.27
2018-10-18T03:46:33.725Z,38.60
2018-10-18T03:47:25.805Z,36.80
2018-10-18T03:48:13.971Z,38.90
2018-10-18T03:49:05.713Z,36.67
2018-10-18T03:49:53.718Z,38.80
2018-10-18T03:50:41.539Z,37.87
2018-10-18T03:51:33.630Z,38.43
2018-10-18T03:52:21.899Z,37.93
2018-10-18T03:53:14.421Z,39.10
2018-10-18T03:54:07.375Z,38.67
2018-10-18T03:54:58.505Z,37.97
2018-10-18T03:55:46.389Z,39.17
2018-10-18T03:56:33.998Z,37.43
2018-10-18T03:57:22.258Z,38.97
2018-10-18T03:58:10.476Z,37.50
2018-10-18T03:59:01.964Z,37.87
2018-10-18T03:59:50.269Z,37.77
2018-10-18T04:00:41.881Z,37.23
2018-10-18T04:01:29.413Z,37.80
2018-10-18T04:02:16.975Z,38.70
2018-10-18T04:03:04.770Z,37.83
2018-10-18T04:03:52.231Z,37.07
2018-10-18T04:04:39.662Z,37.90
2018-10-18T04:05:26.865Z,36.77
2018-10-18T04:06:15.539Z,37.47
2018-10-18T04:07:06.128Z,37.63
2018-10-18T04:07:53.399Z,37.20
2018-10-18T04:08:41.137Z,36.73
2018-10-18T04:09:28.763Z,35.60
2018-10-18T04:10:16.599Z,36.87
2018-10-18T04:11:04.100Z,36.97
2018-10-18T04:11:51.202Z,35.73
2018-10-18T04:12:38.362Z,35.40
2018-10-18T04:13:25.597Z,36.57
2018-10-18T04:14:12.847Z,36.80
2018-10-18T04:15:00.193Z,35.77
2018-10-18T04:15:47.432Z,35.83
2018-10-18T04:16:34.621Z,36.73
2018-10-18T04:17:21.825Z,35.90
2018-10-18T04:18:09.432Z,36.37
2018-10-18T04:18:56.786Z,35.13
2018-10-18T04:19:44.340Z,35.13
2018-10-18T04:20:31.384Z,36.30
2018-10-18T04:21:18.429Z,35.73
2018-10-18T04:22:05.576Z,34.80
2018-10-18T04:22:52.710Z,36.00
2018-10-18T04:23:39.836Z,35.73
2018-10-18T04:24:26.903Z,36.57
2018-10-18T04:25:13.957Z,34.73
2018-10-18T04:26:01.613Z,36.00
2018-10-18T04:26:49.049Z,33.50
2018-10-18T04:27:36.043Z,35.33
2018-10-18T04:28:23.250Z,35.70
2018-10-18T04:29:10.451Z,36.13
2018-10-18T04:29:57.482Z,35.50
2018-10-18T04:30:44.612Z,34.80
2018-10-18T04:31:31.625Z,35.03
2018-10-18T04:32:18.761Z,35.53
2018-10-18T04:33:05.894Z,35.83
2018-10-18T04:33:52.962Z,35.17
2018-10-18T04:34:39.931Z,35.80
2018-10-18T04:35:27.086Z,34.73
2018-10-18T04:36:14.562Z,35.30
2018-10-18T04:37:01.543Z,34.90
2018-10-18T04:37:48.654Z,34.27
2018-10-18T04:38:35.725Z,36.07
2018-10-18T04:39:22.768Z,33.83
2018-10-18T04:40:09.946Z,35.13
2018-10-18T04:40:57.024Z,34.60
2018-10-18T04:41:44.050Z,35.20
2018-10-18T04:42:31.340Z,34.53
2018-10-18T04:43:18.701Z,33.57
2018-10-18T04:44:05.790Z,35.80
2018-10-18T04:44:53.407Z,34.43
2018-10-18T04:45:40.750Z,33.93
2018-10-18T04:46:28.011Z,34.37
2018-10-18T04:47:15.210Z,34.23
2018-10-18T04:48:02.908Z,33.70
2018-10-18T04:48:50.335Z,33.87
2018-10-18T04:49:37.340Z,35.47
2018-10-18T04:50:24.582Z,36.70
2018-10-18T04:51:11.841Z,35.63
2018-10-18T04:51:59.159Z,34.03
2018-10-18T04:52:46.429Z,33.73
2018-10-18T04:53:33.830Z,34.00
2018-10-18T04:54:21.543Z,34.50
2018-10-18T04:55:08.633Z,35.10
2018-10-18T04:55:55.742Z,35.57
2018-10-18T04:56:43.057Z,34.60
2018-10-18T04:57:30.092Z,32.73
2018-10-18T04:58:17.093Z,33.60
2018-10-18T04:59:04.184Z,35.23
2018-10-18T04:59:51.271Z,33.93
2018-10-18T05:00:38.441Z,34.63
2018-10-18T05:01:25.561Z,33.30
2018-10-18T05:02:12.453Z,35.17
2018-10-18T05:02:59.585Z,35.93
2018-10-18T05:03:46.705Z,32.90
2018-10-18T05:04:33.817Z,35.77
2018-10-18T05:05:52.756Z,34.67
2018-10-18T05:06:40.164Z,33.20
2018-10-18T05:07:27.625Z,34.13
2018-10-18T05:08:14.959Z,33.10
2018-10-18T05:09:03.267Z,33.93
2018-10-18T05:09:50.519Z,33.37
2018-10-18T05:10:37.636Z,33.37
2018-10-18T05:11:24.846Z,34.17
2018-10-18T05:12:11.849Z,33.57
2018-10-18T05:12:58.901Z,33.70
2018-10-18T05:13:45.965Z,34.43
2018-10-18T05:14:33.481Z,33.57
2018-10-18T05:15:20.657Z,33.40
2018-10-18T05:16:07.868Z,34.20
2018-10-18T05:16:55.126Z,33.93
2018-10-18T05:17:42.367Z,33.37
2018-10-18T05:18:29.596Z,33.80
2018-10-18T05:19:16.872Z,32.83
2018-10-18T05:20:03.860Z,35.50
2018-10-18T05:20:50.803Z,34.30
2018-10-18T05:21:37.878Z,34.47
2018-10-18T05:22:25.486Z,34.00
2018-10-18T05:23:12.626Z,35.30
2018-10-18T05:24:00.096Z,34.40
2018-10-18T05:24:47.290Z,34.50
2018-10-18T05:25:34.708Z,35.07
2018-10-18T05:26:22.391Z,33.50
2018-10-18T05:27:09.904Z,33.70
2018-10-18T05:27:56.981Z,34.20
2018-10-18T05:28:44.035Z,33.30
2018-10-18T05:29:30.968Z,32.20
2018-10-18T05:30:18.170Z,33.53
2018-10-18T05:31:05.451Z,32.57
2018-10-18T05:31:52.632Z,35.53
2018-10-18T05:32:40.201Z,33.20
2018-10-18T05:33:27.433Z,31.77
2018-10-18T05:34:14.824Z,34.23
2018-10-18T05:35:02.166Z,35.53
2018-10-18T05:35:49.446Z,35.40
2018-10-18T05:36:36.424Z,34.07
2018-10-18T05:37:24.047Z,33.70
2018-10-18T05:38:11.292Z,34.33
2018-10-18T05:38:58.240Z,31.60
2018-10-18T05:39:45.522Z,33.43
2018-10-18T05:40:32.860Z,32.77
2018-10-18T05:41:20.251Z,33.83
2018-10-18T05:42:07.753Z,34.23
2018-10-18T05:42:55.079Z,34.73
2018-10-18T05:43:42.551Z,31.97
2018-10-18T05:44:29.870Z,33.40
2018-10-18T05:45:16.990Z,33.17
2018-10-18T05:46:04.560Z,33.17
2018-10-18T05:46:51.865Z,34.10
2018-10-18T05:47:38.847Z,32.47
2018-10-18T05:48:26.293Z,33.33
2018-10-18T05:49:13.589Z,33.33
2018-10-18T05:50:01.134Z,33.97
2018-10-18T05:50:48.326Z,32.10
2018-10-18T05:51:35.869Z,32.83
2018-10-18T05:52:23.147Z,32.97
2018-10-18T05:53:10.485Z,32.13
2018-10-18T05:53:58.183Z,32.53
2018-10-18T05:54:45.151Z,32.73
2018-10-18T05:55:32.281Z,33.33
2018-10-18T05:56:19.368Z,33.60
2018-10-18T05:57:06.950Z,31.80
2018-10-18T05:57:54.516Z,33.87
2018-10-18T05:58:41.510Z,32.47
2018-10-18T05:59:29.064Z,30.90
2018-10-18T06:00:17.477Z,34.10
2018-10-18T06:01:04.763Z,33.50
2018-10-18T06:01:51.697Z,34.10
2018-10-18T06:02:39.505Z,31.93
2018-10-18T06:03:26.946Z,33.03
2018-10-18T06:04:14.207Z,31.77
2018-10-18T06:05:01.778Z,31.93
2018-10-18T06:05:49.028Z,32.63
2018-10-18T06:06:36.100Z,33.23
2018-10-18T06:07:23.191Z,33.27
2018-10-18T06:08:10.297Z,33.47
2018-10-18T06:08:57.754Z,31.47
2018-10-18T06:09:44.911Z,32.17
2018-10-18T06:11:08.125Z,32.67
2018-10-18T06:11:55.448Z,32.27
2018-10-18T06:12:43.520Z,32.63
2018-10-18T06:13:30.695Z,31.63
2018-10-18T06:14:18.017Z,32.80
2018-10-18T06:15:05.244Z,32.40
2018-10-18T06:15:52.790Z,32.33
2018-10-18T06:16:39.690Z,32.00
2018-10-18T06:17:27.013Z,31.80
2018-10-18T06:18:14.431Z,31.50
2018-10-18T06:19:01.622Z,31.40
2018-10-18T06:19:48.688Z,33.87
2018-10-18T06:20:36.118Z,31.43
2018-10-18T06:21:23.682Z,31.90
2018-10-18T06:22:10.741Z,31.03
2018-10-18T06:22:58.002Z,31.17
2018-10-18T06:23:44.959Z,32.37
2018-10-18T06:24:35.340Z,33.70
2018-10-18T06:25:22.857Z,31.40
2018-10-18T06:26:09.890Z,30.40
2018-10-18T06:26:56.860Z,31.93
2018-10-18T06:27:44.038Z,31.60
2018-10-18T06:28:31.008Z,31.97
2018-10-18T06:29:18.218Z,31.60
2018-10-18T06:30:06.337Z,32.27
2018-10-18T06:30:53.405Z,33.10
2018-10-18T06:31:40.306Z,31.87
2018-10-18T06:32:27.356Z,32.10
2018-10-18T06:33:14.402Z,32.63
2018-10-18T06:34:01.438Z,30.57
2018-10-18T06:34:48.847Z,32.03
2018-10-18T06:35:36.049Z,30.33
2018-10-18T06:36:23.633Z,31.80
2018-10-18T06:37:11.088Z,31.83
2018-10-18T06:37:58.369Z,32.87
2018-10-18T06:38:46.014Z,34.20
2018-10-18T06:39:33.165Z,31.07
2018-10-18T06:40:20.316Z,32.63
2018-10-18T06:41:08.287Z,31.13
2018-10-18T06:41:55.381Z,32.07
2018-10-18T06:42:42.541Z,32.63
2018-10-18T06:43:36.967Z,33.17
2018-10-18T06:44:23.841Z,30.67
2018-10-18T06:45:17.816Z,32.27
2018-10-18T06:46:07.249Z,31.27
2018-10-18T06:46:54.462Z,31.57
2018-10-18T06:47:42.163Z,30.83
2018-10-18T06:48:29.482Z,30.53
2018-10-18T06:49:16.754Z,31.83
2018-10-18T06:50:04.432Z,31.00
2018-10-18T06:50:51.706Z,31.73
2018-10-18T06:51:38.704Z,30.50
2018-10-18T06:52:25.824Z,31.43
2018-10-18T06:53:13.345Z,30.80
2018-10-18T06:54:00.740Z,31.60
2018-10-18T06:54:48.212Z,31.13
2018-10-18T06:55:35.643Z,31.30
2018-10-18T06:56:22.928Z,31.90
2018-10-18T06:57:09.898Z,31.40
2018-10-18T06:57:56.905Z,32.57
2018-10-18T06:58:43.944Z,31.93
2018-10-18T06:59:30.974Z,31.87
2018-10-18T07:00:24.855Z,29.83
2018-10-18T07:01:11.921Z,33.27
2018-10-18T07:01:58.971Z,32.10
2018-10-18T07:02:46.068Z,31.70
2018-10-18T07:03:33.118Z,31.00
2018-10-18T07:04:20.172Z,30.80
2018-10-18T07:05:08.747Z,32.50
2018-10-18T07:05:56.208Z,32.47
2018-10-18T07:06:43.294Z,30.87
2018-10-18T07:07:33.497Z,31.27
2018-10-18T07:08:20.738Z,31.50
2018-10-18T07:09:10.066Z,31.30
2018-10-18T07:09:57.154Z,32.67
2018-10-18T07:10:44.337Z,30.87
2018-10-18T07:11:31.332Z,30.50
2018-10-18T07:12:18.494Z,31.20
2018-10-18T07:13:05.836Z,29.83
2018-10-18T07:13:53.066Z,30.30
2018-10-18T07:14:40.763Z,29.77
2018-10-18T07:15:27.927Z,30.63
2018-10-18T07:16:15.381Z,30.60
2018-10-18T07:17:02.365Z,30.67
2018-10-18T07:17:49.523Z,29.37
2018-10-18T07:18:36.505Z,29.80
2018-10-18T07:19:23.706Z,28.33
2018-10-18T07:20:11.064Z,29.07
2018-10-18T07:20:58.610Z,28.97
2018-10-18T07:21:46.188Z,29.63
2018-10-18T07:22:33.607Z,29.43
2018-10-18T07:23:20.778Z,28.63
2018-10-18T07:24:07.650Z,28.23
2018-10-18T07:24:54.731Z,29.77
2018-10-18T07:25:41.796Z,28.63
2018-10-18T07:26:28.722Z,28.77
2018-10-18T07:27:15.982Z,27.80
2018-10-18T07:28:03.168Z,29.40
2018-10-18T07:28:50.703Z,27.37
2018-10-18T07:29:37.832Z,27.53
2018-10-18T07:30:25.035Z,27.20
2018-10-18T07:31:12.640Z,28.77
2018-10-18T07:32:00.025Z,26.70
2018-10-18T07:32:47.225Z,26.93
2018-10-18T07:33:34.353Z,28.37
2018-10-18T07:34:21.607Z,27.63
2018-10-18T07:35:10.017Z,25.33
2018-10-18T07:35:57.128Z,26.50
2018-10-18T07:36:44.388Z,26.37
2018-10-18T07:37:31.523Z,26.43
2018-10-18T07:38:18.968Z,26.90
2018-10-18T07:39:09.936Z,26.63
2018-10-18T07:39:57.009Z,25.57
2018-10-18T07:40:44.074Z,24.73
2018-10-18T07:41:31.432Z,25.80
2018-10-18T07:42:18.713Z,26.83
2018-10-18T07:43:05.711Z,25.90
2018-10-18T07:43:52.890Z,26.13
2018-10-18T07:44:39.866Z,25.87
2018-10-18T07:45:27.269Z,24.97
2018-10-18T07:46:14.243Z,25.77
2018-10-18T07:47:01.472Z,26.00
2018-10-18T07:47:48.527Z,25.93
2018-10-18T07:48:35.591Z,25.17
2018-10-18T07:49:22.648Z,24.00
2018-10-18T07:50:09.919Z,25.00
2018-10-18T07:50:57.250Z,26.00
2018-10-18T07:51:44.294Z,27.50
2018-10-18T07:52:31.573Z,25.13
2018-10-18T07:53:18.903Z,25.97
2018-10-18T07:54:06.038Z,26.17
2018-10-18T07:54:53.635Z,25.50
2018-10-18T07:55:41.352Z,25.53
2018-10-18T07:56:28.784Z,25.37
2018-10-18T07:57:15.999Z,25.87
2018-10-18T07:58:03.534Z,25.37
2018-10-18T07:58:50.884Z,25.37
2018-10-18T07:59:37.947Z,26.20
2018-10-18T08:00:25.058Z,24.03
2018-10-18T08:01:12.143Z,24.87
2018-10-18T08:01:59.636Z,24.83
2018-10-18T08:02:46.966Z,26.50
2018-10-18T08:03:52.255Z,26.97
2018-10-18T08:04:45.889Z,24.77
2018-10-18T08:05:33.457Z,25.13
2018-10-18T08:06:21.070Z,26.23
2018-10-18T08:07:08.356Z,24.03
2018-10-18T08:07:55.475Z,25.40
2018-10-18T08:08:42.747Z,25.30
2018-10-18T08:09:30.399Z,24.03
2018-10-18T08:10:19.667Z,24.53
2018-10-18T08:11:16.767Z,25.87
2018-10-18T08:12:04.048Z,25.33
2018-10-18T08:12:51.199Z,25.33
2018-10-18T08:13:38.429Z,25.93
2018-10-18T08:14:25.598Z,25.03
2018-10-18T08:15:13.924Z,25.30
2018-10-18T08:16:01.392Z,24.67
2018-10-18T08:16:48.471Z,24.37
2018-10-18T08:17:35.700Z,24.77
2018-10-18T08:18:22.989Z,23.27
2018-10-18T08:19:10.116Z,24.17
2018-10-18T08:19:57.396Z,25.60
2018-10-18T08:20:44.300Z,24.13
2018-10-18T08:21:31.664Z,24.67
2018-10-18T08:22:19.073Z,24.77
2018-10-18T08:23:15.274Z,23.33
2018-10-18T08:24:15.484Z,24.40
2018-10-18T08:25:03.957Z,24.13
2018-10-18T08:25:51.093Z,22.57
2018-10-18T08:26:55.844Z,23.47
2018-10-18T08:27:46.160Z,22.20
2018-10-18T08:28:33.415Z,22.83
2018-10-18T08:29:20.984Z,23.53
2018-10-18T08:30:12.559Z,22.63
2018-10-18T08:30:59.585Z,22.57
2018-10-18T08:31:46.885Z,21.53
2018-10-18T08:32:33.920Z,23.00
2018-10-18T08:33:21.671Z,21.47
2018-10-18T08:34:09.293Z,21.27
2018-10-18T08:34:56.305Z,20.13
2018-10-18T08:35:43.412Z,20.47
2018-10-18T08:36:32.786Z,21.13
2018-10-18T08:37:20.045Z,21.07
2018-10-18T08:38:07.426Z,22.47
2018-10-18T08:38:54.852Z,21.13
2018-10-18T08:39:41.987Z,19.53
2018-10-18T08:40:29.372Z,21.80
2018-10-18T08:41:17.133Z,21.60
2018-10-18T08:42:04.354Z,22.23
2018-10-18T08:42:51.426Z,25.20
2018-10-18T08:43:38.582Z,24.73
2018-10-18T08:44:25.916Z,24.10
2018-10-18T08:45:13.916Z,24.20
2018-10-18T08:46:01.344Z,23.40
2018-10-18T08:46:48.336Z,23.23
2018-10-18T08:47:35.444Z,23.80
2018-10-18T08:48:22.537Z,22.27
2018-10-18T08:49:09.541Z,23.47
2018-10-18T08:49:56.539Z,22.80
2018-10-18T08:50:43.636Z,22.77
2018-10-18T08:51:30.966Z,22.37
2018-10-18T08:52:18.195Z,22.83
2018-10-18T08:53:05.468Z,23.60
2018-10-18T08:53:52.767Z,22.87
2018-10-18T08:54:39.897Z,22.60
2018-10-18T08:55:26.994Z,23.63
2018-10-18T08:56:14.307Z,22.50
2018-10-18T08:57:01.673Z,22.13
2018-10-18T08:57:49.061Z,21.67
2018-10-18T08:58:36.506Z,22.20
2018-10-18T08:59:23.935Z,22.80
2018-10-18T09:00:11.726Z,24.17
2018-10-18T09:00:59.582Z,24.30
2018-10-18T09:01:47.165Z,25.07
2018-10-18T09:02:34.212Z,24.87
2018-10-18T09:03:21.435Z,24.57
2018-10-18T09:04:08.686Z,23.17
2018-10-18T09:04:55.913Z,24.20
2018-10-18T09:05:43.190Z,22.77
2018-10-18T09:06:30.524Z,23.67
2018-10-18T09:07:17.897Z,23.90
2018-10-18T09:08:13.115Z,23.20
2018-10-18T09:09:00.513Z,23.33
2018-10-18T09:09:48.552Z,23.97
2018-10-18T09:10:36.023Z,22.73
2018-10-18T09:11:26.368Z,22.57
2018-10-18T09:12:14.072Z,23.03
2018-10-18T09:13:01.709Z,24.47
2018-10-18T09:13:49.022Z,23.23
2018-10-18T09:14:46.766Z,23.03
2018-10-18T09:15:35.403Z,22.93
2018-10-18T09:16:22.346Z,22.57
2018-10-18T09:17:12.393Z,23.67
2018-10-18T09:17:59.666Z,24.87
2018-10-18T09:18:46.664Z,23.73
2018-10-18T09:19:33.773Z,23.93
2018-10-18T09:20:20.823Z,24.20
2018-10-18T09:21:07.846Z,22.97
2018-10-18T09:21:59.870Z,22.80
2018-10-18T09:22:54.922Z,22.00
2018-10-18T09:23:43.527Z,20.87
2018-10-18T09:24:30.985Z,23.30
2018-10-18T09:25:18.333Z,22.17
2018-10-18T09:26:05.341Z,20.63
2018-10-18T09:26:52.412Z,21.70
2018-10-18T09:27:40.166Z,21.73
2018-10-18T09:28:27.616Z,21.23
2018-10-18T09:29:14.839Z,20.13
2018-10-18T09:30:02.119Z,20.70
2018-10-18T09:30:50.279Z,19.40
2018-10-18T09:31:37.721Z,20.10
2018-10-18T09:32:25.152Z,20.00
2018-10-18T09:33:12.572Z,19.30
2018-10-18T09:33:59.976Z,18.33
2018-10-18T09:34:47.051Z,17.97
2018-10-18T09:35:34.667Z,18.97
2018-10-18T09:36:22.058Z,18.20
2018-10-18T09:37:09.529Z,18.20
2018-10-18T09:37:56.553Z,18.37
2018-10-18T09:38:43.696Z,18.23
2018-10-18T09:39:30.777Z,18.30
2018-10-18T09:40:18.061Z,17.10
2018-10-18T09:41:05.025Z,18.40
2018-10-18T09:41:51.961Z,17.83
2018-10-18T09:42:39.659Z,17.50
2018-10-18T09:43:26.829Z,17.30
2018-10-18T09:44:13.902Z,16.67
2018-10-18T09:45:00.987Z,16.97
2018-10-18T09:45:47.952Z,17.13
2018-10-18T09:46:35.991Z,18.00
2018-10-18T09:47:23.145Z,17.73
2018-10-18T09:48:10.240Z,17.37
2018-10-18T09:48:57.490Z,17.50
2018-10-18T09:49:45.132Z,17.00
2018-10-18T09:50:33.648Z,17.43
2018-10-18T09:51:25.608Z,16.40
2018-10-18T09:52:12.702Z,16.53
2018-10-18T09:52:59.754Z,15.67
2018-10-18T09:53:46.703Z,16.17
2018-10-18T09:54:34.170Z,15.67
2018-10-18T09:55:21.325Z,15.53
2018-10-18T09:56:08.685Z,14.83
2018-10-18T09:56:56.066Z,15.30
2018-10-18T09:57:43.176Z,16.17
2018-10-18T09:58:30.360Z,16.07
2018-10-18T09:59:17.392Z,16.27
2018-10-18T10:00:04.315Z,15.27
2018-10-18T10:01:09.038Z,16.10
2018-10-18T10:02:14.288Z,15.10
2018-10-18T10:03:10.669Z,15.83
2018-10-18T10:03:57.603Z,15.97
2018-10-18T10:04:44.612Z,16.60
2018-10-18T10:05:31.580Z,16.60
2018-10-18T10:06:18.564Z,16.67
2018-10-18T10:07:06.038Z,16.60
2018-10-18T10:07:53.386Z,18.27
2018-10-18T10:08:40.305Z,17.57
2018-10-18T10:09:27.357Z,18.83
2018-10-18T10:10:14.319Z,17.93
2018-10-18T10:11:01.296Z,18.53
2018-10-18T10:11:48.827Z,17.93
2018-10-18T10:12:35.692Z,18.50
2018-10-18T10:13:22.864Z,16.33
2018-10-18T10:14:09.622Z,16.40
2018-10-18T10:14:56.649Z,17.67